sensor_id;sensor_type;location;lat;lon;timestamp;temperature;humidity
935;DHT22;454;53.254;10.400;2023-02-15T05:01:42;2.40;99.90
935;DHT22;454;53.254;10.400;2023-02-15T05:04:09;2.30;99.90
935;DHT22;454;53.254;10.400;2023-02-15T05:06:36;2.30;99.90
935;DHT22;454;53.254;10.400;2023-02-15T05:09:03;2.40;99.90
935;DHT22;454;53.254;10.400;2023-02-15T05:11:29;2.40;99.90
935;DHT22;454;53.254;10.400;2023-02-15T05:13:56;2.50;99.90
935;DHT22;454;53.254;10.400;2023-02-15T05:16:23;2.60;99.90
935;DHT22;454;53.254;10.400;2023-02-15T05:18:52;2.60;99.90
935;DHT22;454;53.254;10.400;2023-02-15T05:21:18;2.60;99.90
935;DHT22;454;53.254;10.400;2023-02-15T05:23:45;2.60;99.90
935;DHT22;454;53.254;10.400;2023-02-15T05:26:15;2.50;99.90
935;DHT22;454;53.254;10.400;2023-02-15T05:29:00;2.50;99.90
935;DHT22;454;53.254;10.400;2023-02-15T05:31:27;2.50;99.90
935;DHT22;454;53.254;10.400;2023-02-15T05:33:55;2.50;99.90
935;DHT22;454;53.254;10.400;2023-02-15T05:36:22;2.50;99.90
935;DHT22;454;53.254;10.400;2023-02-15T05:38:48;2.40;99.90
935;DHT22;454;53.254;10.400;2023-02-15T05:41:15;2.40;99.90
935;DHT22;454;53.254;10.400;2023-02-15T05:43:42;2.40;99.90
935;DHT22;454;53.254;10.400;2023-02-15T05:46:09;2.40;99.90
935;DHT22;454;53.254;10.400;2023-02-15T05:48:36;2.30;99.90
935;DHT22;454;53.254;10.400;2023-02-15T05:51:06;2.30;99.90
935;DHT22;454;53.254;10.400;2023-02-15T05:53:35;2.30;99.90
935;DHT22;454;53.254;10.400;2023-02-15T05:56:03;2.40;99.90
935;DHT22;454;53.254;10.400;2023-02-15T05:58:32;2.40;99.90
935;DHT22;454;53.254;10.400;2023-02-15T06:00:59;2.40;99.90
935;DHT22;454;53.254;10.400;2023-02-15T06:03:26;2.30;99.90
935;DHT22;454;53.254;10.400;2023-02-15T06:05:53;2.20;99.90
935;DHT22;454;53.254;10.400;2023-02-15T06:08:21;2.10;99.90
935;DHT22;454;53.254;10.400;2023-02-15T06:10:48;2.10;99.90
935;DHT22;454;53.254;10.400;2023-02-15T06:13:15;2.00;99.90
935;DHT22;454;53.254;10.400;2023-02-15T06:15:42;2.10;99.90
935;DHT22;454;53.254;10.400;2023-02-15T06:18:08;2.20;99.90
935;DHT22;454;53.254;10.400;2023-02-15T06:20:35;2.30;99.90
935;DHT22;454;53.254;10.400;2023-02-15T06:23:02;2.30;99.90
935;DHT22;454;53.254;10.400;2023-02-15T06:25:30;2.30;99.90
935;DHT22;454;53.254;10.400;2023-02-15T06:27:56;2.20;99.90
935;DHT22;454;53.254;10.400;2023-02-15T06:30:23;2.30;99.90
935;DHT22;454;53.254;10.400;2023-02-15T06:32:50;2.20;99.90
935;DHT22;454;53.254;10.400;2023-02-15T06:35:16;2.30;99.90
935;DHT22;454;53.254;10.400;2023-02-15T06:37:45;2.30;99.90
935;DHT22;454;53.254;10.400;2023-02-15T06:40:12;2.30;99.90
935;DHT22;454;53.254;10.400;2023-02-15T06:42:40;2.30;99.90
935;DHT22;454;53.254;10.400;2023-02-15T06:45:08;2.30;99.90
935;DHT22;454;53.254;10.400;2023-02-15T06:47:35;2.40;99.90
935;DHT22;454;53.254;10.400;2023-02-15T06:50:02;2.40;99.90
935;DHT22;454;53.254;10.400;2023-02-15T06:52:28;2.40;99.90
935;DHT22;454;53.254;10.400;2023-02-15T06:54:56;2.30;99.90
935;DHT22;454;53.254;10.400;2023-02-15T06:57:23;2.40;99.90
935;DHT22;454;53.254;10.400;2023-02-15T06:59:51;2.40;99.90
935;DHT22;454;53.254;10.400;2023-02-15T07:02:18;2.40;99.90
935;DHT22;454;53.254;10.400;2023-02-15T07:04:45;2.30;99.90
935;DHT22;454;53.254;10.400;2023-02-15T07:07:12;2.10;99.90
935;DHT22;454;53.254;10.400;2023-02-15T07:09:39;2.10;99.90
935;DHT22;454;53.254;10.400;2023-02-15T07:12:06;2.10;99.90
935;DHT22;454;53.254;10.400;2023-02-15T07:14:52;2.00;99.90
935;DHT22;454;53.254;10.400;2023-02-15T07:17:19;2.00;99.90
935;DHT22;454;53.254;10.400;2023-02-15T07:19:45;2.10;99.90
935;DHT22;454;53.254;10.400;2023-02-15T07:22:12;2.00;99.90
935;DHT22;454;53.254;10.400;2023-02-15T07:24:39;2.00;99.90
935;DHT22;454;53.254;10.400;2023-02-15T07:27:06;2.10;99.90
935;DHT22;454;53.254;10.400;2023-02-15T07:29:33;2.20;99.90
935;DHT22;454;53.254;10.400;2023-02-15T07:32:01;2.10;99.90
935;DHT22;454;53.254;10.400;2023-02-15T07:34:28;2.00;99.90
935;DHT22;454;53.254;10.400;2023-02-15T07:36:55;2.00;99.90
935;DHT22;454;53.254;10.400;2023-02-15T07:39:21;2.10;99.90
935;DHT22;454;53.254;10.400;2023-02-15T07:41:48;2.20;99.90
935;DHT22;454;53.254;10.400;2023-02-15T07:44:15;2.30;99.90
935;DHT22;454;53.254;10.400;2023-02-15T07:46:41;2.30;99.90
935;DHT22;454;53.254;10.400;2023-02-15T07:49:10;2.30;99.90
935;DHT22;454;53.254;10.400;2023-02-15T07:51:36;2.40;99.90
935;DHT22;454;53.254;10.400;2023-02-15T07:54:03;2.40;99.90
935;DHT22;454;53.254;10.400;2023-02-15T07:56:30;2.50;99.90
935;DHT22;454;53.254;10.400;2023-02-15T07:58:58;2.50;99.90
935;DHT22;454;53.254;10.400;2023-02-15T08:01:31;2.50;99.90
935;DHT22;454;53.254;10.400;2023-02-15T08:03:58;2.60;99.90
935;DHT22;454;53.254;10.400;2023-02-15T08:06:28;2.70;99.90
935;DHT22;454;53.254;10.400;2023-02-15T08:08:56;2.80;99.90
935;DHT22;454;53.254;10.400;2023-02-15T08:11:24;2.80;99.90
935;DHT22;454;53.254;10.400;2023-02-15T08:14:00;2.80;99.90
935;DHT22;454;53.254;10.400;2023-02-15T08:16:31;2.90;99.90
935;DHT22;454;53.254;10.400;2023-02-15T08:19:00;2.90;99.90
935;DHT22;454;53.254;10.400;2023-02-15T08:21:29;3.00;99.90
935;DHT22;454;53.254;10.400;2023-02-15T08:23:56;3.00;99.90
935;DHT22;454;53.254;10.400;2023-02-15T08:26:23;3.10;99.90
935;DHT22;454;53.254;10.400;2023-02-15T08:28:50;3.10;99.90
935;DHT22;454;53.254;10.400;2023-02-15T08:31:18;3.20;99.90
935;DHT22;454;53.254;10.400;2023-02-15T08:33:46;3.30;99.90
935;DHT22;454;53.254;10.400;2023-02-15T08:36:15;3.30;99.90
935;DHT22;454;53.254;10.400;2023-02-15T08:38:44;3.30;99.90
935;DHT22;454;53.254;10.400;2023-02-15T08:41:13;3.30;99.90
935;DHT22;454;53.254;10.400;2023-02-15T08:43:40;3.40;99.90
935;DHT22;454;53.254;10.400;2023-02-15T08:46:08;3.30;99.90
935;DHT22;454;53.254;10.400;2023-02-15T08:48:35;3.40;99.90
935;DHT22;454;53.254;10.400;2023-02-15T08:51:07;3.50;99.90
935;DHT22;454;53.254;10.400;2023-02-15T08:53:36;3.60;99.90
935;DHT22;454;53.254;10.400;2023-02-15T08:56:04;3.60;99.90
935;DHT22;454;53.254;10.400;2023-02-15T08:58:32;3.60;99.90
935;DHT22;454;53.254;10.400;2023-02-15T09:00:59;3.70;99.90
935;DHT22;454;53.254;10.400;2023-02-15T09:03:27;3.60;99.90
935;DHT22;454;53.254;10.400;2023-02-15T09:05:58;3.50;99.90
935;DHT22;454;53.254;10.400;2023-02-15T09:08:25;3.50;99.90
935;DHT22;454;53.254;10.400;2023-02-15T09:10:53;3.60;99.90
935;DHT22;454;53.254;10.400;2023-02-15T09:13:21;3.70;99.90
935;DHT22;454;53.254;10.400;2023-02-15T09:15:48;3.80;99.90
935;DHT22;454;53.254;10.400;2023-02-15T09:18:15;3.70;99.90
935;DHT22;454;53.254;10.400;2023-02-15T09:20:43;3.70;99.90
935;DHT22;454;53.254;10.400;2023-02-15T09:23:10;3.80;99.90
935;DHT22;454;53.254;10.400;2023-02-15T09:25:36;3.90;99.90
935;DHT22;454;53.254;10.400;2023-02-15T09:28:03;4.00;99.90
935;DHT22;454;53.254;10.400;2023-02-15T09:30:31;4.10;99.90
935;DHT22;454;53.254;10.400;2023-02-15T09:32:58;3.90;99.90
935;DHT22;454;53.254;10.400;2023-02-15T09:35:25;3.90;99.90
935;DHT22;454;53.254;10.400;2023-02-15T09:37:51;3.90;99.90
935;DHT22;454;53.254;10.400;2023-02-15T09:40:18;4.00;99.90
935;DHT22;454;53.254;10.400;2023-02-15T09:43:01;4.00;99.90
935;DHT22;454;53.254;10.400;2023-02-15T09:45:49;4.20;99.90
935;DHT22;454;53.254;10.400;2023-02-15T09:48:40;4.30;99.90
935;DHT22;454;53.254;10.400;2023-02-15T09:56:53;4.50;99.90
935;DHT22;454;53.254;10.400;2023-02-15T09:59:28;4.50;99.90
935;DHT22;454;53.254;10.400;2023-02-15T10:02:09;4.60;99.90
935;DHT22;454;53.254;10.400;2023-02-15T10:04:53;4.60;99.90
935;DHT22;454;53.254;10.400;2023-02-15T10:07:35;4.50;99.90
935;DHT22;454;53.254;10.400;2023-02-15T10:10:15;4.40;99.90
935;DHT22;454;53.254;10.400;2023-02-15T10:12:55;4.70;99.90
935;DHT22;454;53.254;10.400;2023-02-15T10:15:38;4.80;99.90
935;DHT22;454;53.254;10.400;2023-02-15T10:18:29;4.90;99.90
935;DHT22;454;53.254;10.400;2023-02-15T10:21:03;4.70;99.90
935;DHT22;454;53.254;10.400;2023-02-15T10:23:46;4.50;99.90
935;DHT22;454;53.254;10.400;2023-02-15T10:26:18;4.30;99.90
935;DHT22;454;53.254;10.400;2023-02-15T10:28:48;4.30;99.90
935;DHT22;454;53.254;10.400;2023-02-15T10:31:22;4.40;99.90
935;DHT22;454;53.254;10.400;2023-02-15T10:34:00;4.40;99.90
935;DHT22;454;53.254;10.400;2023-02-15T10:36:38;4.60;99.90
935;DHT22;454;53.254;10.400;2023-02-15T10:39:12;4.80;99.90
935;DHT22;454;53.254;10.400;2023-02-15T10:41:50;4.90;99.90
935;DHT22;454;53.254;10.400;2023-02-15T10:44:37;5.00;99.90
935;DHT22;454;53.254;10.400;2023-02-15T10:47:23;5.00;99.90
935;DHT22;454;53.254;10.400;2023-02-15T10:52:59;5.10;99.90
935;DHT22;454;53.254;10.400;2023-02-15T10:55:39;5.30;99.90
935;DHT22;454;53.254;10.400;2023-02-15T10:58:14;5.40;99.90
935;DHT22;454;53.254;10.400;2023-02-15T11:00:45;5.60;99.90
935;DHT22;454;53.254;10.400;2023-02-15T11:03:36;5.60;99.90
935;DHT22;454;53.254;10.400;2023-02-15T11:06:08;5.60;99.90
935;DHT22;454;53.254;10.400;2023-02-15T11:08:40;5.70;99.90
935;DHT22;454;53.254;10.400;2023-02-15T11:11:11;5.60;99.90
935;DHT22;454;53.254;10.400;2023-02-15T11:13:41;5.50;99.90
935;DHT22;454;53.254;10.400;2023-02-15T11:16:14;5.50;99.90
935;DHT22;454;53.254;10.400;2023-02-15T11:18:43;5.50;99.90
935;DHT22;454;53.254;10.400;2023-02-15T11:21:19;5.40;99.90
935;DHT22;454;53.254;10.400;2023-02-15T11:23:47;5.40;99.90
935;DHT22;454;53.254;10.400;2023-02-15T11:26:16;5.40;99.90
935;DHT22;454;53.254;10.400;2023-02-15T11:28:49;5.40;99.90
935;DHT22;454;53.254;10.400;2023-02-15T11:31:19;5.50;99.90
935;DHT22;454;53.254;10.400;2023-02-15T11:33:50;5.60;99.90
935;DHT22;454;53.254;10.400;2023-02-15T11:36:23;5.70;99.90
935;DHT22;454;53.254;10.400;2023-02-15T11:38:54;5.70;99.90
935;DHT22;454;53.254;10.400;2023-02-15T11:41:26;5.70;99.90
935;DHT22;454;53.254;10.400;2023-02-15T11:43:58;5.80;99.90
935;DHT22;454;53.254;10.400;2023-02-15T11:46:26;5.80;99.90
935;DHT22;454;53.254;10.400;2023-02-15T11:48:54;5.80;99.90
935;DHT22;454;53.254;10.400;2023-02-15T11:51:22;5.90;99.90
935;DHT22;454;53.254;10.400;2023-02-15T11:53:50;6.00;99.90
935;DHT22;454;53.254;10.400;2023-02-15T11:56:19;6.10;99.90
935;DHT22;454;53.254;10.400;2023-02-15T11:58:49;6.20;99.90
935;DHT22;454;53.254;10.400;2023-02-15T12:01:21;6.20;99.90
935;DHT22;454;53.254;10.400;2023-02-15T12:03:51;6.20;99.90
935;DHT22;454;53.254;10.400;2023-02-15T12:06:25;6.20;99.90
935;DHT22;454;53.254;10.400;2023-02-15T12:08:59;6.30;99.90
935;DHT22;454;53.254;10.400;2023-02-15T12:11:31;6.40;99.90
935;DHT22;454;53.254;10.400;2023-02-15T12:14:00;6.50;99.90
935;DHT22;454;53.254;10.400;2023-02-15T12:16:29;6.60;99.90
935;DHT22;454;53.254;10.400;2023-02-15T12:18:59;6.60;99.90
935;DHT22;454;53.254;10.400;2023-02-15T12:21:31;6.70;99.90
935;DHT22;454;53.254;10.400;2023-02-15T12:24:02;6.80;99.90
935;DHT22;454;53.254;10.400;2023-02-15T12:26:32;6.80;99.90
935;DHT22;454;53.254;10.400;2023-02-15T12:29:00;6.90;99.90
935;DHT22;454;53.254;10.400;2023-02-15T12:31:37;6.90;99.90
935;DHT22;454;53.254;10.400;2023-02-15T12:34:09;7.00;99.90
935;DHT22;454;53.254;10.400;2023-02-15T12:36:44;7.10;99.90
935;DHT22;454;53.254;10.400;2023-02-15T12:39:19;7.20;99.90
935;DHT22;454;53.254;10.400;2023-02-15T12:41:56;7.30;99.90
935;DHT22;454;53.254;10.400;2023-02-15T12:44:24;7.30;99.90
935;DHT22;454;53.254;10.400;2023-02-15T12:47:00;7.30;99.90
935;DHT22;454;53.254;10.400;2023-02-15T12:49:28;7.40;99.90
935;DHT22;454;53.254;10.400;2023-02-15T12:51:58;7.50;99.90
935;DHT22;454;53.254;10.400;2023-02-15T12:54:38;7.50;99.90
935;DHT22;454;53.254;10.400;2023-02-15T12:57:22;7.60;99.90
935;DHT22;454;53.254;10.400;2023-02-15T12:59:52;7.60;99.90
935;DHT22;454;53.254;10.400;2023-02-15T13:02:25;7.70;99.90
935;DHT22;454;53.254;10.400;2023-02-15T13:04:54;7.80;99.90
935;DHT22;454;53.254;10.400;2023-02-15T13:07:24;7.80;99.90
935;DHT22;454;53.254;10.400;2023-02-15T13:09:51;7.90;99.90
935;DHT22;454;53.254;10.400;2023-02-15T13:12:21;8.00;99.90
935;DHT22;454;53.254;10.400;2023-02-15T13:14:51;8.00;99.90
935;DHT22;454;53.254;10.400;2023-02-15T13:17:23;8.10;99.90
935;DHT22;454;53.254;10.400;2023-02-15T13:19:56;8.10;99.90
935;DHT22;454;53.254;10.400;2023-02-15T13:22:30;8.10;99.90
935;DHT22;454;53.254;10.400;2023-02-15T13:25:01;8.10;99.90
935;DHT22;454;53.254;10.400;2023-02-15T13:27:34;8.10;99.90
935;DHT22;454;53.254;10.400;2023-02-15T13:30:08;8.20;99.90
935;DHT22;454;53.254;10.400;2023-02-15T13:32:38;8.20;99.90
935;DHT22;454;53.254;10.400;2023-02-15T13:35:14;8.30;99.90
935;DHT22;454;53.254;10.400;2023-02-15T13:40:35;8.40;99.90
935;DHT22;454;53.254;10.400;2023-02-15T13:43:10;8.50;99.90
935;DHT22;454;53.254;10.400;2023-02-15T13:46:00;8.60;99.90
935;DHT22;454;53.254;10.400;2023-02-15T13:48:37;8.60;99.90
935;DHT22;454;53.254;10.400;2023-02-15T13:51:11;8.70;99.90
935;DHT22;454;53.254;10.400;2023-02-15T13:53:53;8.70;99.90
935;DHT22;454;53.254;10.400;2023-02-15T13:56:30;8.70;99.90
935;DHT22;454;53.254;10.400;2023-02-15T14:01:48;8.80;99.90
935;DHT22;454;53.254;10.400;2023-02-15T14:04:53;8.80;99.90
935;DHT22;454;53.254;10.400;2023-02-15T14:07:33;8.90;99.90
935;DHT22;454;53.254;10.400;2023-02-15T14:10:24;8.90;99.90
935;DHT22;454;53.254;10.400;2023-02-15T14:13:13;8.90;99.90
935;DHT22;454;53.254;10.400;2023-02-15T14:15:48;8.80;99.90
935;DHT22;454;53.254;10.400;2023-02-15T14:18:24;8.80;99.90
935;DHT22;454;53.254;10.400;2023-02-15T14:21:03;8.70;99.90
935;DHT22;454;53.254;10.400;2023-02-15T14:23:42;8.70;99.90
935;DHT22;454;53.254;10.400;2023-02-15T14:26:18;8.70;99.90
935;DHT22;454;53.254;10.400;2023-02-15T14:28:53;8.60;99.90
935;DHT22;454;53.254;10.400;2023-02-15T14:31:27;8.60;99.90
935;DHT22;454;53.254;10.400;2023-02-15T14:33:55;8.60;99.90
935;DHT22;454;53.254;10.400;2023-02-15T14:36:24;8.60;99.90
935;DHT22;454;53.254;10.400;2023-02-15T14:38:59;8.70;99.90
935;DHT22;454;53.254;10.400;2023-02-15T14:41:36;8.70;99.90
935;DHT22;454;53.254;10.400;2023-02-15T14:44:08;8.70;99.90
935;DHT22;454;53.254;10.400;2023-02-15T14:46:42;8.70;99.90
935;DHT22;454;53.254;10.400;2023-02-15T14:49:15;8.70;99.90
935;DHT22;454;53.254;10.400;2023-02-15T14:51:56;8.70;99.90
935;DHT22;454;53.254;10.400;2023-02-15T14:54:52;8.60;99.90
935;DHT22;454;53.254;10.400;2023-02-15T14:57:26;8.60;99.90
935;DHT22;454;53.254;10.400;2023-02-15T14:59:56;8.60;99.90
935;DHT22;454;53.254;10.400;2023-02-15T15:02:29;8.60;99.90
935;DHT22;454;53.254;10.400;2023-02-15T15:05:00;8.60;99.90
935;DHT22;454;53.254;10.400;2023-02-15T15:07:37;8.50;99.90
935;DHT22;454;53.254;10.400;2023-02-15T15:10:06;8.50;99.90
935;DHT22;454;53.254;10.400;2023-02-15T15:12:43;8.50;99.90
935;DHT22;454;53.254;10.400;2023-02-15T15:15:31;8.40;99.90
935;DHT22;454;53.254;10.400;2023-02-15T15:18:00;8.40;99.90
935;DHT22;454;53.254;10.400;2023-02-15T15:20:42;8.40;99.90
935;DHT22;454;53.254;10.400;2023-02-15T15:23:36;8.40;99.90
935;DHT22;454;53.254;10.400;2023-02-15T15:26:26;8.30;99.90
935;DHT22;454;53.254;10.400;2023-02-15T15:28:57;8.30;99.90
935;DHT22;454;53.254;10.400;2023-02-15T15:31:31;8.30;99.90
935;DHT22;454;53.254;10.400;2023-02-15T15:34:17;8.30;99.90
935;DHT22;454;53.254;10.400;2023-02-15T15:37:33;8.20;99.90
935;DHT22;454;53.254;10.400;2023-02-15T15:43:31;8.20;99.90
935;DHT22;454;53.254;10.400;2023-02-15T15:46:13;8.20;99.90
935;DHT22;454;53.254;10.400;2023-02-15T15:48:46;8.20;99.90
935;DHT22;454;53.254;10.400;2023-02-15T15:51:18;8.10;99.90
935;DHT22;454;53.254;10.400;2023-02-15T15:53:47;8.10;99.90
935;DHT22;454;53.254;10.400;2023-02-15T15:56:20;8.10;99.90
935;DHT22;454;53.254;10.400;2023-02-15T15:58:50;8.10;99.90
935;DHT22;454;53.254;10.400;2023-02-15T16:01:24;8.00;99.90
935;DHT22;454;53.254;10.400;2023-02-15T16:03:54;7.90;99.90
935;DHT22;454;53.254;10.400;2023-02-15T16:06:34;7.90;99.90
935;DHT22;454;53.254;10.400;2023-02-15T16:09:11;7.80;99.90
935;DHT22;454;53.254;10.400;2023-02-15T16:11:39;7.80;99.90
935;DHT22;454;53.254;10.400;2023-02-15T16:14:11;7.80;99.90
935;DHT22;454;53.254;10.400;2023-02-15T16:16:40;7.70;99.90
935;DHT22;454;53.254;10.400;2023-02-15T16:19:18;7.70;99.90
935;DHT22;454;53.254;10.400;2023-02-15T16:21:48;7.60;99.90
935;DHT22;454;53.254;10.400;2023-02-15T16:24:49;7.60;99.90
935;DHT22;454;53.254;10.400;2023-02-15T16:27:32;7.50;99.90
935;DHT22;454;53.254;10.400;2023-02-15T16:30:20;7.40;99.90
935;DHT22;454;53.254;10.400;2023-02-15T16:32:49;7.40;99.90
935;DHT22;454;53.254;10.400;2023-02-15T16:35:17;7.30;99.90
935;DHT22;454;53.254;10.400;2023-02-15T16:37:45;7.30;99.90
935;DHT22;454;53.254;10.400;2023-02-15T16:40:35;7.20;99.90
935;DHT22;454;53.254;10.400;2023-02-15T16:43:06;7.20;99.90
935;DHT22;454;53.254;10.400;2023-02-15T16:45:38;7.10;99.90
935;DHT22;454;53.254;10.400;2023-02-15T16:48:08;7.10;99.90
935;DHT22;454;53.254;10.400;2023-02-15T16:50:39;7.00;99.90
935;DHT22;454;53.254;10.400;2023-02-15T16:53:14;7.00;99.90
935;DHT22;454;53.254;10.400;2023-02-15T16:55:43;6.90;99.90
935;DHT22;454;53.254;10.400;2023-02-15T16:58:16;6.90;99.90
935;DHT22;454;53.254;10.400;2023-02-15T17:00:44;6.80;99.90
935;DHT22;454;53.254;10.400;2023-02-15T17:03:23;6.80;99.90
935;DHT22;454;53.254;10.400;2023-02-15T17:05:52;6.80;99.90
935;DHT22;454;53.254;10.400;2023-02-15T17:08:24;6.70;99.90
935;DHT22;454;53.254;10.400;2023-02-15T17:11:04;6.70;99.90
935;DHT22;454;53.254;10.400;2023-02-15T17:13:31;6.70;99.90
935;DHT22;454;53.254;10.400;2023-02-15T17:16:23;6.60;99.90
935;DHT22;454;53.254;10.400;2023-02-15T17:18:54;6.50;99.90
935;DHT22;454;53.254;10.400;2023-02-15T17:21:25;6.50;99.90
935;DHT22;454;53.254;10.400;2023-02-15T17:23:57;6.50;99.90
935;DHT22;454;53.254;10.400;2023-02-15T17:26:28;6.40;99.90
935;DHT22;454;53.254;10.400;2023-02-15T17:28:56;6.40;99.90
935;DHT22;454;53.254;10.400;2023-02-15T17:31:25;6.40;99.90
935;DHT22;454;53.254;10.400;2023-02-15T17:33:55;6.30;99.90
935;DHT22;454;53.254;10.400;2023-02-15T17:36:25;6.30;99.90
935;DHT22;454;53.254;10.400;2023-02-15T17:39:04;6.20;99.90
935;DHT22;454;53.254;10.400;2023-02-15T17:41:32;6.10;99.90
935;DHT22;454;53.254;10.400;2023-02-15T17:44:01;6.10;99.90
935;DHT22;454;53.254;10.400;2023-02-15T17:46:32;6.00;99.90
935;DHT22;454;53.254;10.400;2023-02-15T17:49:01;6.00;99.90
935;DHT22;454;53.254;10.400;2023-02-15T17:51:28;6.00;99.90
935;DHT22;454;53.254;10.400;2023-02-15T17:53:56;6.00;99.90
935;DHT22;454;53.254;10.400;2023-02-15T17:56:40;6.10;99.90
935;DHT22;454;53.254;10.400;2023-02-15T17:59:07;6.10;99.90
935;DHT22;454;53.254;10.400;2023-02-15T18:01:38;6.10;99.90
935;DHT22;454;53.254;10.400;2023-02-15T18:04:26;6.10;99.90
935;DHT22;454;53.254;10.400;2023-02-15T18:07:12;6.10;99.90
935;DHT22;454;53.254;10.400;2023-02-15T18:09:56;6.10;99.90
935;DHT22;454;53.254;10.400;2023-02-15T18:12:40;6.00;99.90
935;DHT22;454;53.254;10.400;2023-02-15T18:15:07;6.10;99.90
935;DHT22;454;53.254;10.400;2023-02-15T18:17:38;6.00;99.90
935;DHT22;454;53.254;10.400;2023-02-15T18:20:17;6.00;99.90
935;DHT22;454;53.254;10.400;2023-02-15T18:22:44;6.00;99.90
935;DHT22;454;53.254;10.400;2023-02-15T18:25:12;6.00;99.90
935;DHT22;454;53.254;10.400;2023-02-15T18:27:40;6.00;99.90
935;DHT22;454;53.254;10.400;2023-02-15T18:30:11;6.00;99.90
935;DHT22;454;53.254;10.400;2023-02-15T18:32:39;5.90;99.90
935;DHT22;454;53.254;10.400;2023-02-15T18:35:13;6.00;99.90
935;DHT22;454;53.254;10.400;2023-02-15T18:37:41;5.90;99.90
935;DHT22;454;53.254;10.400;2023-02-15T18:40:14;5.90;99.90
935;DHT22;454;53.254;10.400;2023-02-15T18:42:41;5.90;99.90
935;DHT22;454;53.254;10.400;2023-02-15T18:45:15;5.80;99.90
935;DHT22;454;53.254;10.400;2023-02-15T18:47:42;5.70;99.90
935;DHT22;454;53.254;10.400;2023-02-15T18:50:11;5.70;99.90
935;DHT22;454;53.254;10.400;2023-02-15T18:52:38;5.60;99.90
935;DHT22;454;53.254;10.400;2023-02-15T18:55:15;5.60;99.90
935;DHT22;454;53.254;10.400;2023-02-15T18:57:42;5.50;99.90
935;DHT22;454;53.254;10.400;2023-02-15T19:00:14;5.50;99.90
935;DHT22;454;53.254;10.400;2023-02-15T19:02:41;5.50;99.90
935;DHT22;454;53.254;10.400;2023-02-15T19:05:09;5.40;99.90
935;DHT22;454;53.254;10.400;2023-02-15T19:07:36;5.40;99.90
935;DHT22;454;53.254;10.400;2023-02-15T19:10:05;5.40;99.90
935;DHT22;454;53.254;10.400;2023-02-15T19:12:33;5.40;99.90
935;DHT22;454;53.254;10.400;2023-02-15T19:14:59;5.40;99.90
935;DHT22;454;53.254;10.400;2023-02-15T19:17:26;5.40;99.90
935;DHT22;454;53.254;10.400;2023-02-15T19:19:53;5.40;99.90
935;DHT22;454;53.254;10.400;2023-02-15T19:22:24;5.40;99.90
935;DHT22;454;53.254;10.400;2023-02-15T19:24:53;5.30;99.90
935;DHT22;454;53.254;10.400;2023-02-15T19:27:24;5.30;99.90
935;DHT22;454;53.254;10.400;2023-02-15T19:29:52;5.30;99.90
935;DHT22;454;53.254;10.400;2023-02-15T19:32:19;5.30;99.90
935;DHT22;454;53.254;10.400;2023-02-15T19:34:46;5.30;99.90
935;DHT22;454;53.254;10.400;2023-02-15T19:37:20;5.30;99.90
935;DHT22;454;53.254;10.400;2023-02-15T19:39:49;5.30;99.90
935;DHT22;454;53.254;10.400;2023-02-15T19:42:19;5.30;99.90
935;DHT22;454;53.254;10.400;2023-02-15T19:44:47;5.30;99.90
935;DHT22;454;53.254;10.400;2023-02-15T19:47:15;5.20;99.90
935;DHT22;454;53.254;10.400;2023-02-15T19:49:41;5.10;99.90
935;DHT22;454;53.254;10.400;2023-02-15T19:52:15;5.10;99.90
935;DHT22;454;53.254;10.400;2023-02-15T19:54:42;5.10;99.90
935;DHT22;454;53.254;10.400;2023-02-15T19:57:11;5.10;99.90
935;DHT22;454;53.254;10.400;2023-02-15T19:59:39;5.20;99.90
935;DHT22;454;53.254;10.400;2023-02-15T20:02:06;5.20;99.90
935;DHT22;454;53.254;10.400;2023-02-15T20:04:32;5.20;99.90
935;DHT22;454;53.254;10.400;2023-02-15T20:07:00;5.10;99.90
935;DHT22;454;53.254;10.400;2023-02-15T20:09:29;5.10;99.90
935;DHT22;454;53.254;10.400;2023-02-15T20:11:56;5.10;99.90
935;DHT22;454;53.254;10.400;2023-02-15T20:14:24;5.10;99.90
935;DHT22;454;53.254;10.400;2023-02-15T20:16:51;5.10;99.90
935;DHT22;454;53.254;10.400;2023-02-15T20:19:18;5.10;99.90
935;DHT22;454;53.254;10.400;2023-02-15T20:21:46;5.10;99.90
935;DHT22;454;53.254;10.400;2023-02-15T20:24:19;5.10;99.90
935;DHT22;454;53.254;10.400;2023-02-15T20:26:46;5.10;99.90
935;DHT22;454;53.254;10.400;2023-02-15T20:29:13;5.10;99.90
935;DHT22;454;53.254;10.400;2023-02-15T20:31:42;5.10;99.90
935;DHT22;454;53.254;10.400;2023-02-15T20:34:08;5.10;99.90
935;DHT22;454;53.254;10.400;2023-02-15T20:36:36;5.00;99.90
935;DHT22;454;53.254;10.400;2023-02-15T20:39:09;5.00;99.90
935;DHT22;454;53.254;10.400;2023-02-15T20:41:37;4.90;99.90
935;DHT22;454;53.254;10.400;2023-02-15T20:44:19;4.90;99.90
935;DHT22;454;53.254;10.400;2023-02-15T20:46:48;4.90;99.90
935;DHT22;454;53.254;10.400;2023-02-15T20:49:15;4.90;99.90
935;DHT22;454;53.254;10.400;2023-02-15T20:51:42;4.80;99.90
935;DHT22;454;53.254;10.400;2023-02-15T20:54:13;4.80;99.90
935;DHT22;454;53.254;10.400;2023-02-15T20:56:40;4.80;99.90
935;DHT22;454;53.254;10.400;2023-02-15T20:59:19;4.80;99.90
935;DHT22;454;53.254;10.400;2023-02-15T21:01:49;4.70;99.90
935;DHT22;454;53.254;10.400;2023-02-15T21:04:27;4.70;99.90
935;DHT22;454;53.254;10.400;2023-02-15T21:06:54;4.70;99.90
935;DHT22;454;53.254;10.400;2023-02-15T21:09:21;4.70;99.90
935;DHT22;454;53.254;10.400;2023-02-15T21:11:49;4.60;99.90
935;DHT22;454;53.254;10.400;2023-02-15T21:14:19;4.60;99.90
935;DHT22;454;53.254;10.400;2023-02-15T21:16:48;4.60;99.90
935;DHT22;454;53.254;10.400;2023-02-15T21:19:17;4.60;99.90
935;DHT22;454;53.254;10.400;2023-02-15T21:21:45;4.60;99.90
935;DHT22;454;53.254;10.400;2023-02-15T21:24:14;4.50;99.90
935;DHT22;454;53.254;10.400;2023-02-15T21:26:43;4.50;99.90
935;DHT22;454;53.254;10.400;2023-02-15T21:29:14;4.50;99.90
935;DHT22;454;53.254;10.400;2023-02-15T21:31:41;4.50;99.90
935;DHT22;454;53.254;10.400;2023-02-15T21:34:09;4.50;99.90
935;DHT22;454;53.254;10.400;2023-02-15T21:36:36;4.40;99.90
935;DHT22;454;53.254;10.400;2023-02-15T21:39:04;4.40;99.90
935;DHT22;454;53.254;10.400;2023-02-15T21:41:32;4.40;99.90
935;DHT22;454;53.254;10.400;2023-02-15T21:44:18;4.40;99.90
935;DHT22;454;53.254;10.400;2023-02-15T21:47:02;4.30;99.90
935;DHT22;454;53.254;10.400;2023-02-15T21:49:48;4.30;99.90
935;DHT22;454;53.254;10.400;2023-02-15T21:52:17;4.30;99.90
935;DHT22;454;53.254;10.400;2023-02-15T21:54:45;4.30;99.90
935;DHT22;454;53.254;10.400;2023-02-15T21:57:13;4.30;99.90
935;DHT22;454;53.254;10.400;2023-02-15T21:59:40;4.30;99.90
